Time;durP1;ratioP1;P1;durP2;ratioP2;P2;SDS_P1;SDS_P2;PMS_P1;PMS_P2;Temp;Humidity;BMP_temperature;BMP_pressure;BME280_temperature;BME280_humidity;BME280_pressure;Samples;Min_cycle;Max_cycle;Signal;HPM_P1;HPM_P2
2021/05/11 00:00:25;;;;;;;4.20;3.80;;;15.70;99.90;;;;;;6062713;23;20575;-87
2021/05/11 00:02:50;;;;;;;3.67;3.37;;;15.60;99.90;;;;;;6064594;23;20526;-88
2021/05/11 00:05:16;;;;;;;5.60;4.00;;;15.50;99.90;;;;;;6063079;23;20598;-88
2021/05/11 00:07:42;;;;;;;4.90;4.10;;;15.50;99.90;;;;;;6060553;23;20686;-88
2021/05/11 00:10:08;;;;;;;3.97;3.57;;;15.60;99.90;;;;;;6063403;23;20234;-87
2021/05/11 00:12:34;;;;;;;5.40;3.30;;;15.40;99.90;;;;;;6087445;23;21168;-87
2021/05/11 00:14:59;;;;;;;4.07;3.77;;;15.50;99.90;;;;;;6061190;23;20586;-88
2021/05/11 00:17:25;;;;;;;5.93;3.70;;;15.40;99.90;;;;;;6086034;23;20197;-87
2021/05/11 00:19:51;;;;;;;5.50;3.30;;;15.40;99.90;;;;;;6060064;23;20623;-87
2021/05/11 00:22:17;;;;;;;4.83;3.40;;;15.40;99.90;;;;;;6097783;23;20162;-88
2021/05/11 00:24:42;;;;;;;4.10;3.70;;;15.40;99.90;;;;;;6116330;22;20206;-88
2021/05/11 00:27:10;;;;;;;4.67;3.10;;;15.30;99.90;;;;;;6117015;23;20198;-85
2021/05/11 00:29:36;;;;;;;4.10;3.00;;;15.30;99.90;;;;;;6118442;23;20165;-87
2021/05/11 00:32:02;;;;;;;4.50;3.50;;;15.30;99.90;;;;;;6116069;23;20610;-87
2021/05/11 00:34:27;;;;;;;4.63;3.03;;;15.20;99.90;;;;;;6112928;22;20263;-87
2021/05/11 00:36:53;;;;;;;4.00;3.20;;;15.20;99.90;;;;;;6116534;23;20246;-89
2021/05/11 00:39:19;;;;;;;5.07;3.37;;;15.20;99.90;;;;;;6115391;23;20196;-88
2021/05/11 00:41:47;;;;;;;4.90;4.40;;;15.10;99.90;;;;;;6117724;23;20610;-89
2021/05/11 00:44:20;;;;;;;4.13;3.77;;;15.10;99.90;;;;;;6115666;22;20237;-88
2021/05/11 00:47:04;;;;;;;6.10;3.87;;;15.10;99.90;;;;;;6116524;23;20554;-88
2021/05/11 00:49:37;;;;;;;4.30;3.60;;;15.10;99.90;;;;;;6114268;23;20656;-87
2021/05/11 00:52:11;;;;;;;4.83;4.03;;;15.10;99.90;;;;;;6122516;23;20674;-88
2021/05/11 00:54:45;;;;;;;3.70;3.40;;;15.00;99.90;;;;;;6115322;22;20578;-88
2021/05/11 00:57:12;;;;;;;4.33;3.63;;;15.00;99.90;;;;;;6112298;23;20650;-88
2021/05/11 00:59:40;;;;;;;7.90;3.90;;;15.00;99.90;;;;;;6115529;23;20612;-88
2021/05/11 01:02:07;;;;;;;4.47;3.97;;;15.00;99.90;;;;;;6116238;23;20561;-88
2021/05/11 01:04:34;;;;;;;4.70;4.07;;;15.00;99.90;;;;;;6117305;22;20586;-88
2021/05/11 01:06:59;;;;;;;4.40;3.87;;;14.90;99.90;;;;;;6116272;23;20898;-88
2021/05/11 01:09:26;;;;;;;6.93;4.03;;;14.90;99.90;;;;;;6117444;23;21182;-87
2021/05/11 01:11:52;;;;;;;4.63;4.10;;;14.90;99.90;;;;;;6117101;23;20590;-87
2021/05/11 01:14:19;;;;;;;4.57;4.17;;;14.90;99.90;;;;;;6115583;22;20616;-87
2021/05/11 01:16:48;;;;;;;4.87;3.87;;;14.90;99.90;;;;;;6119628;23;20805;-87
2021/05/11 01:19:21;;;;;;;4.33;3.93;;;14.90;99.90;;;;;;6119633;23;20547;-88
2021/05/11 01:24:43;;;;;;;5.07;4.40;;;14.80;99.90;;;;;;6121722;22;20609;-86
2021/05/11 01:30:11;;;;;;;4.83;3.70;;;14.80;99.90;;;;;;6118338;23;21162;-88
2021/05/11 01:56:47;;;;;;;8.03;3.97;;;14.60;99.90;;;;;;6126810;23;20527;-87
2021/05/11 02:10:30;;;;;;;4.70;4.30;;;14.60;99.90;;;;;;6139584;23;20506;-88
2021/05/11 02:23:29;;;;;;;11.00;6.73;;;14.50;99.90;;;;;;6141896;23;20671;-66
2021/05/11 02:25:56;;;;;;;7.10;6.50;;;14.50;99.90;;;;;;6169344;23;21237;-66
2021/05/11 02:28:23;;;;;;;6.93;6.33;;;14.50;99.90;;;;;;6191036;23;20184;-66
2021/05/11 02:30:48;;;;;;;7.13;5.80;;;14.50;99.90;;;;;;6188448;23;20579;-69
2021/05/11 02:33:14;;;;;;;5.50;5.00;;;14.50;99.90;;;;;;6192863;23;21154;-68
2021/05/11 02:35:40;;;;;;;4.67;4.27;;;14.50;99.90;;;;;;6193942;23;20507;-68
2021/05/11 02:38:07;;;;;;;4.63;3.83;;;14.40;99.90;;;;;;6198877;23;20175;-66
2021/05/11 02:40:33;;;;;;;4.27;3.87;;;14.40;99.90;;;;;;6190396;23;20168;-68
2021/05/11 02:43:20;;;;;;;5.90;4.70;;;14.40;99.90;;;;;;6193672;23;20711;-66
2021/05/11 02:45:46;;;;;;;4.57;4.10;;;14.30;99.90;;;;;;6192725;22;20196;-67
2021/05/11 02:48:11;;;;;;;4.43;3.80;;;14.30;99.90;;;;;;6198366;23;20589;-65
2021/05/11 02:50:37;;;;;;;4.30;3.90;;;14.30;99.90;;;;;;6195092;23;20156;-67
2021/05/11 02:53:04;;;;;;;5.50;3.80;;;14.20;99.90;;;;;;6195238;23;20518;-68
2021/05/11 02:55:30;;;;;;;5.80;4.20;;;14.20;99.90;;;;;;6166916;23;20378;-68
2021/05/11 02:57:56;;;;;;;4.17;3.80;;;14.20;99.90;;;;;;6206477;23;20611;-67
2021/05/11 03:00:23;;;;;;;3.83;3.50;;;14.20;99.90;;;;;;6187406;23;20563;-65
2021/05/11 03:02:50;;;;;;;3.73;3.23;;;14.20;99.90;;;;;;6200907;23;20157;-66
2021/05/11 03:05:16;;;;;;;4.40;3.40;;;14.10;99.90;;;;;;6193357;23;20591;-70
2021/05/11 03:07:42;;;;;;;3.93;3.63;;;14.10;99.90;;;;;;6196020;23;20639;-68
2021/05/11 03:10:10;;;;;;;3.47;3.17;;;14.10;99.90;;;;;;6194469;23;20577;-66
2021/05/11 03:12:36;;;;;;;3.90;3.50;;;14.10;99.90;;;;;;6168639;23;21088;-66
2021/05/11 03:15:03;;;;;;;4.77;3.33;;;14.00;99.90;;;;;;6193829;23;20583;-66
2021/05/11 03:17:28;;;;;;;4.60;2.97;;;14.00;99.90;;;;;;6198376;23;20265;-67
2021/05/11 03:19:54;;;;;;;4.33;3.00;;;14.00;99.90;;;;;;6197599;23;20639;-67
2021/05/11 03:22:22;;;;;;;4.37;2.90;;;14.00;99.90;;;;;;6165440;23;20229;-66
2021/05/11 03:24:48;;;;;;;4.27;3.07;;;14.00;99.90;;;;;;6160692;23;20603;-67
2021/05/11 03:27:17;;;;;;;3.33;3.03;;;14.00;99.90;;;;;;6191431;23;20567;-66
2021/05/11 03:29:44;;;;;;;3.47;2.97;;;13.90;99.90;;;;;;6191141;23;20548;-66
2021/05/11 03:32:12;;;;;;;4.77;3.23;;;14.00;99.90;;;;;;6183905;23;20538;-67
2021/05/11 03:34:38;;;;;;;4.17;3.10;;;13.90;99.90;;;;;;6190773;23;20583;-66
2021/05/11 03:37:05;;;;;;;5.10;3.57;;;13.90;99.90;;;;;;6195526;23;20570;-66
2021/05/11 03:39:42;;;;;;;4.20;3.10;;;13.80;99.90;;;;;;6199168;23;20895;-66
2021/05/11 03:42:22;;;;;;;5.10;3.50;;;13.80;99.90;;;;;;6174447;23;20547;-68
2021/05/11 03:44:51;;;;;;;4.03;3.27;;;13.80;99.90;;;;;;6174614;23;20690;-66
2021/05/11 03:47:19;;;;;;;3.80;3.50;;;13.80;99.90;;;;;;6189014;22;21174;-66
2021/05/11 03:49:45;;;;;;;3.77;3.37;;;13.80;99.90;;;;;;6176927;23;20592;-67
2021/05/11 03:52:11;;;;;;;5.20;3.67;;;13.80;99.90;;;;;;6210159;23;20535;-66
2021/05/11 03:54:36;;;;;;;3.23;2.37;;;13.80;99.90;;;;;;6194524;22;20192;-66
2021/05/11 03:57:05;;;;;;;2.60;2.30;;;13.80;99.90;;;;;;6202725;23;20618;-67
2021/05/11 03:59:34;;;;;;;2.70;2.23;;;13.80;99.90;;;;;;6196538;23;20243;-66
2021/05/11 04:02:00;;;;;;;4.27;1.90;;;13.70;99.90;;;;;;6171567;22;20566;-66
2021/05/11 04:04:25;;;;;;;2.77;1.83;;;13.70;99.90;;;;;;6193459;23;21095;-66
2021/05/11 04:06:51;;;;;;;3.53;1.60;;;13.60;99.90;;;;;;6168809;23;20231;-67
2021/05/11 04:09:27;;;;;;;5.50;1.90;;;13.60;99.90;;;;;;6197444;22;20261;-66
2021/05/11 04:12:07;;;;;;;2.33;1.80;;;13.60;99.90;;;;;;6193677;22;20143;-66
2021/05/11 04:17:17;;;;;;;2.80;2.10;;;13.50;99.90;;;;;;6193742;23;21124;-66
2021/05/11 04:19:45;;;;;;;3.90;2.13;;;13.50;99.90;;;;;;6199406;23;20547;-66
2021/05/11 04:22:10;;;;;;;2.73;2.00;;;13.50;99.90;;;;;;6197553;23;20159;-67
2021/05/11 04:24:36;;;;;;;5.67;2.30;;;13.40;99.90;;;;;;6192160;22;20595;-66
2021/05/11 04:27:01;;;;;;;4.10;2.00;;;13.40;99.90;;;;;;6193170;23;20176;-66
2021/05/11 04:29:28;;;;;;;3.10;1.90;;;13.40;99.90;;;;;;6194378;23;20602;-66
2021/05/11 04:31:53;;;;;;;3.17;2.00;;;13.40;99.90;;;;;;6201790;22;20160;-66
2021/05/11 04:34:21;;;;;;;3.20;2.50;;;13.40;99.90;;;;;;6195542;23;20647;-66
2021/05/11 04:36:47;;;;;;;3.03;2.10;;;13.40;99.90;;;;;;6196958;23;20490;-66
2021/05/11 04:39:12;;;;;;;3.00;2.30;;;13.40;99.90;;;;;;6190257;23;20861;-67
2021/05/11 04:41:38;;;;;;;5.30;2.43;;;13.40;99.90;;;;;;6194607;23;20599;-66
2021/05/11 04:44:04;;;;;;;3.50;2.50;;;13.40;99.90;;;;;;6192902;22;20681;-67
2021/05/11 04:46:57;;;;;;;2.83;2.37;;;13.40;99.90;;;;;;6193229;22;20632;-67
2021/05/11 04:49:24;;;;;;;4.20;2.80;;;13.40;99.90;;;;;;6166532;23;20652;-66
2021/05/11 04:51:50;;;;;;;2.50;2.30;;;13.40;99.90;;;;;;6172753;23;20666;-67
2021/05/11 04:54:15;;;;;;;3.90;2.40;;;13.40;99.90;;;;;;6164449;23;20651;-66
2021/05/11 04:56:41;;;;;;;2.87;2.40;;;13.40;99.90;;;;;;6163090;23;21027;-66
2021/05/11 04:59:06;;;;;;;2.70;2.50;;;13.40;99.90;;;;;;6195519;23;20171;-66
2021/05/11 05:01:32;;;;;;;4.53;2.53;;;13.40;99.90;;;;;;6191329;22;20184;-66
2021/05/11 05:03:59;;;;;;;5.50;2.60;;;13.40;99.90;;;;;;6198717;22;20269;-66
2021/05/11 05:06:25;;;;;;;3.47;3.00;;;13.40;99.90;;;;;;6194958;22;20580;-66
2021/05/11 05:08:50;;;;;;;3.50;2.83;;;13.40;99.90;;;;;;6201685;23;20598;-66
2021/05/11 05:11:17;;;;;;;3.10;2.57;;;13.40;99.90;;;;;;6189115;23;20235;-67
2021/05/11 05:13:44;;;;;;;5.50;2.90;;;13.40;99.90;;;;;;6164826;22;20300;-66
2021/05/11 05:16:09;;;;;;;3.30;2.53;;;13.40;99.90;;;;;;6171467;22;20630;-66
2021/05/11 05:18:35;;;;;;;3.20;2.90;;;13.30;99.90;;;;;;6197636;23;21006;-66
2021/05/11 05:21:04;;;;;;;4.80;2.77;;;13.40;99.90;;;;;;6193860;23;21018;-66
2021/05/11 05:23:35;;;;;;;2.57;2.37;;;13.40;99.90;;;;;;6196621;22;20681;-66
2021/05/11 05:26:06;;;;;;;4.90;2.90;;;13.40;99.90;;;;;;6194479;22;20650;-64
2021/05/11 05:28:37;;;;;;;3.80;3.07;;;13.40;99.90;;;;;;6196148;22;20559;-65
2021/05/11 05:31:03;;;;;;;4.97;2.60;;;13.40;99.90;;;;;;6195782;22;20547;-64
2021/05/11 05:33:35;;;;;;;3.27;2.70;;;13.40;99.90;;;;;;6197915;22;20583;-64
2021/05/11 05:36:01;;;;;;;5.60;2.60;;;13.30;99.90;;;;;;6200515;23;20208;-65
2021/05/11 05:38:28;;;;;;;3.10;2.57;;;13.40;99.90;;;;;;6198516;23;20524;-64
2021/05/11 05:41:01;;;;;;;3.27;2.60;;;13.40;99.90;;;;;;6193138;22;20543;-64
2021/05/11 05:43:27;;;;;;;3.03;2.80;;;13.40;99.90;;;;;;6192579;22;20598;-64
2021/05/11 05:45:54;;;;;;;4.37;2.87;;;13.40;99.90;;;;;;6181607;22;20587;-66
2021/05/11 05:48:20;;;;;;;4.23;3.10;;;13.40;99.90;;;;;;6184274;23;20606;-62
2021/05/11 05:50:49;;;;;;;4.63;3.00;;;13.40;99.90;;;;;;6205342;23;20539;-64
2021/05/11 05:53:22;;;;;;;6.00;3.00;;;13.40;99.90;;;;;;6179223;23;20915;-64
2021/05/11 05:55:48;;;;;;;4.00;2.87;;;13.40;99.90;;;;;;6192737;22;20658;-64
2021/05/11 05:58:13;;;;;;;3.53;3.20;;;13.30;99.90;;;;;;6189563;23;21080;-63
2021/05/11 06:00:39;;;;;;;3.30;3.00;;;13.40;99.90;;;;;;6190201;23;20221;-61
2021/05/11 06:03:06;;;;;;;4.00;3.37;;;13.40;99.90;;;;;;6189706;23;20839;-64
2021/05/11 06:05:35;;;;;;;4.17;3.10;;;13.40;99.90;;;;;;6178544;23;20228;-63
2021/05/11 06:08:03;;;;;;;3.70;3.17;;;13.40;99.90;;;;;;6182417;22;20603;-64
2021/05/11 06:10:30;;;;;;;3.53;3.10;;;13.30;99.90;;;;;;6168876;23;20566;-69
2021/05/11 06:13:19;;;;;;;4.20;3.40;;;13.40;99.90;;;;;;6172002;22;20559;-66
2021/05/11 06:18:26;;;;;;;4.37;2.90;;;13.40;99.90;;;;;;6198557;23;20905;-67
2021/05/11 06:20:52;;;;;;;4.60;3.00;;;13.40;99.90;;;;;;6201764;23;20528;-66
2021/05/11 06:23:18;;;;;;;4.70;3.27;;;13.40;99.90;;;;;;6191530;23;20207;-67
2021/05/11 06:25:44;;;;;;;4.97;3.97;;;13.40;99.90;;;;;;6171354;22;20283;-67
2021/05/11 06:28:11;;;;;;;4.27;3.07;;;13.30;99.90;;;;;;6198923;22;20639;-67
2021/05/11 06:30:37;;;;;;;5.80;3.20;;;13.30;99.90;;;;;;6197687;23;20598;-66
2021/05/11 06:33:04;;;;;;;3.67;2.80;;;13.40;99.90;;;;;;6172799;22;20624;-66
2021/05/11 06:35:33;;;;;;;4.23;2.77;;;13.40;99.90;;;;;;6197856;22;20455;-66
2021/05/11 06:37:59;;;;;;;3.43;3.10;;;13.40;99.90;;;;;;6198789;22;20900;-68
2021/05/11 06:40:27;;;;;;;3.90;3.57;;;13.40;99.90;;;;;;6196806;23;20543;-67
2021/05/11 06:42:53;;;;;;;5.70;2.90;;;13.40;99.90;;;;;;6190526;23;21135;-67
2021/05/11 06:53:40;;;;;;;3.10;2.43;;;13.40;99.90;;;;;;6205131;23;21164;-66
2021/05/11 06:56:08;;;;;;;3.87;2.70;;;13.50;99.90;;;;;;6190664;23;20594;-66
2021/05/11 06:58:34;;;;;;;5.13;2.47;;;13.40;99.90;;;;;;6192921;22;20551;-66
2021/05/11 07:01:01;;;;;;;2.93;2.37;;;13.40;99.90;;;;;;6195481;23;20580;-66
2021/05/11 07:03:27;;;;;;;3.70;2.40;;;13.30;99.90;;;;;;6195932;23;20858;-66
2021/05/11 07:05:53;;;;;;;2.47;2.27;;;13.30;99.90;;;;;;6192329;23;20596;-67
2021/05/11 07:11:27;;;;;;;2.67;2.47;;;13.30;99.90;;;;;;6192713;23;21113;-67
2021/05/11 07:13:53;;;;;;;2.83;2.23;;;13.30;99.90;;;;;;6197272;22;20602;-69
2021/05/11 07:16:19;;;;;;;4.67;2.70;;;13.30;99.90;;;;;;6203498;23;20571;-66
2021/05/11 07:18:45;;;;;;;2.60;2.40;;;13.30;99.90;;;;;;6198576;22;20673;-66
2021/05/11 07:21:10;;;;;;;3.30;2.23;;;13.40;99.90;;;;;;6171633;23;20598;-66
2021/05/11 07:23:36;;;;;;;2.90;2.50;;;13.40;99.90;;;;;;6197082;23;20710;-66
2021/05/11 07:26:11;;;;;;;3.93;2.47;;;13.30;99.90;;;;;;6197908;23;20180;-66
2021/05/11 07:29:02;;;;;;;3.17;2.70;;;13.30;99.90;;;;;;6192779;22;20543;-64
2021/05/11 07:31:24;;;;;;;3.13;2.30;;;13.30;99.90;;;;;;6177299;22;21214;-67
2021/05/11 07:33:52;;;;;;;2.83;2.63;;;13.30;99.90;;;;;;6197177;23;20718;-66
2021/05/11 07:36:18;;;;;;;4.20;2.63;;;13.30;99.90;;;;;;6196982;22;20852;-68
2021/05/11 07:38:45;;;;;;;2.93;2.40;;;13.30;99.90;;;;;;6198448;23;20570;-65
2021/05/11 07:41:14;;;;;;;4.13;2.47;;;13.20;99.90;;;;;;6195043;23;20236;-66
2021/05/11 07:43:41;;;;;;;3.90;2.33;;;13.30;99.90;;;;;;6205483;23;20595;-66
2021/05/11 08:15:39;;;;;;;4.40;1.90;;;13.30;99.90;;;;;;6200302;23;20503;-67
2021/05/11 08:18:14;;;;;;;2.50;2.20;;;13.30;99.90;;;;;;6198468;22;20540;-67
2021/05/11 08:28:52;;;;;;;3.73;2.50;;;13.30;99.90;;;;;;6192163;23;20558;-62
2021/05/11 08:31:17;;;;;;;3.30;2.10;;;13.30;99.90;;;;;;6187105;23;20520;-59
2021/05/11 08:33:43;;;;;;;2.90;2.37;;;13.40;99.90;;;;;;6195408;23;20204;-62
2021/05/11 08:36:09;;;;;;;4.50;2.20;;;13.50;99.90;;;;;;6194629;23;21040;-63
2021/05/11 08:38:35;;;;;;;4.67;2.47;;;13.50;99.90;;;;;;6164529;23;20610;-66
2021/05/11 08:41:00;;;;;;;2.53;2.00;;;13.60;99.90;;;;;;6198825;23;20539;-69
2021/05/11 08:43:37;;;;;;;2.20;2.00;;;13.50;99.90;;;;;;6194886;22;20950;-69
2021/05/11 08:46:08;;;;;;;2.53;1.90;;;13.60;99.90;;;;;;6197045;23;20225;-66
2021/05/11 08:48:35;;;;;;;2.17;1.97;;;13.60;99.90;;;;;;6171836;22;20614;-68
2021/05/11 09:14:16;;;;;;;3.43;1.80;;;13.90;99.90;;;;;;6215698;23;20627;-67
2021/05/11 09:16:45;;;;;;;3.60;1.80;;;13.90;99.90;;;;;;6197067;23;20659;-66
2021/05/11 09:24:55;;;;;;;1.87;1.77;;;13.90;99.90;;;;;;6194396;23;20597;-67
2021/05/11 09:27:42;;;;;;;3.23;1.80;;;13.90;99.90;;;;;;6194341;22;20689;-66
2021/05/11 09:33:02;;;;;;;2.13;2.00;;;13.90;99.90;;;;;;6205824;23;20511;-66
2021/05/11 10:49:32;;;;;;;4.10;2.23;;;14.90;99.90;;;;;;6210313;23;20608;-66
2021/05/11 10:52:21;;;;;;;3.83;2.23;;;15.00;99.90;;;;;;6199639;22;20551;-68
2021/05/11 10:54:53;;;;;;;3.00;2.73;;;15.00;99.90;;;;;;6201221;23;21207;-67
2021/05/11 10:57:31;;;;;;;2.57;2.37;;;15.10;99.90;;;;;;6198413;23;20596;-66
2021/05/11 11:00:09;;;;;;;2.97;2.27;;;15.20;99.90;;;;;;6198474;22;20642;-66
2021/05/11 11:05:02;;;;;;;4.90;2.17;;;15.30;99.90;;;;;;6199349;23;20628;-67
2021/05/11 11:07:40;;;;;;;2.20;2.10;;;15.40;99.90;;;;;;6199512;22;20172;-67
2021/05/11 11:10:08;;;;;;;2.70;2.47;;;15.50;99.90;;;;;;6199880;23;20512;-67
2021/05/11 11:12:39;;;;;;;3.67;2.47;;;15.60;99.90;;;;;;6204806;23;20527;-66
2021/05/11 11:15:12;;;;;;;2.70;2.20;;;15.80;99.90;;;;;;6200535;22;20587;-66
2021/05/11 11:17:43;;;;;;;2.17;1.60;;;15.90;99.90;;;;;;6174867;23;20579;-67
2021/05/11 11:20:11;;;;;;;2.20;2.00;;;16.00;99.90;;;;;;6201716;23;20547;-67
2021/05/11 11:25:23;;;;;;;3.80;2.27;;;16.10;99.90;;;;;;6198548;23;20590;-67
2021/05/11 11:27:49;;;;;;;3.07;2.00;;;16.10;99.90;;;;;;6199365;23;20519;-68
2021/05/11 11:30:19;;;;;;;4.67;2.63;;;16.10;99.90;;;;;;6197681;22;20198;-65
2021/05/11 11:32:49;;;;;;;3.33;1.63;;;16.20;99.90;;;;;;6198466;22;20765;-68
2021/05/11 11:35:15;;;;;;;2.77;1.60;;;16.30;99.90;;;;;;6199398;22;20591;-67
2021/05/11 11:37:46;;;;;;;2.30;1.60;;;16.40;99.90;;;;;;6175402;23;20586;-67
2021/05/11 11:40:16;;;;;;;1.80;1.50;;;16.60;99.90;;;;;;6201118;23;20572;-67
2021/05/11 11:42:44;;;;;;;1.70;1.43;;;16.70;99.90;;;;;;6201724;23;20535;-62
2021/05/11 11:45:30;;;;;;;2.03;1.37;;;16.80;99.90;;;;;;6191464;23;21097;-68
2021/05/11 11:48:03;;;;;;;3.00;1.50;;;16.70;99.90;;;;;;6195373;23;20598;-65
2021/05/11 11:50:35;;;;;;;2.20;2.00;;;16.80;99.90;;;;;;6169935;23;21195;-68
2021/05/11 11:53:07;;;;;;;1.67;1.50;;;16.70;99.90;;;;;;6195772;23;20552;-68
2021/05/11 11:55:56;;;;;;;2.30;1.50;;;16.70;99.90;;;;;;6194721;22;20560;-65
2021/05/11 11:58:23;;;;;;;2.30;1.53;;;16.60;99.90;;;;;;6196677;22;21116;-63
2021/05/11 12:00:49;;;;;;;2.40;1.60;;;16.60;99.90;;;;;;6202613;23;21102;-63
2021/05/11 12:03:15;;;;;;;2.17;1.70;;;16.50;99.90;;;;;;6196367;23;20595;-63
2021/05/11 12:05:50;;;;;;;2.00;1.73;;;16.50;99.90;;;;;;6196763;22;20184;-64
2021/05/11 12:08:25;;;;;;;1.33;1.20;;;16.50;99.90;;;;;;6202162;23;21103;-61
2021/05/11 12:11:01;;;;;;;4.60;1.57;;;16.60;99.90;;;;;;6199689;23;20519;-63
2021/05/11 12:13:36;;;;;;;1.70;1.60;;;16.60;99.90;;;;;;6200617;22;21180;-64
2021/05/11 12:16:11;;;;;;;2.00;1.20;;;16.60;99.90;;;;;;6199829;23;20641;-64
2021/05/11 12:19:01;;;;;;;1.57;1.47;;;16.60;99.90;;;;;;6170627;22;20606;-62
2021/05/11 12:21:31;;;;;;;2.70;1.50;;;16.60;99.90;;;;;;6200146;23;20503;-63
2021/05/11 12:24:10;;;;;;;2.80;1.43;;;16.60;99.90;;;;;;6199100;23;20677;-66
2021/05/11 12:26:38;;;;;;;1.50;1.40;;;16.60;99.90;;;;;;6173141;23;20595;-61
2021/05/11 12:29:09;;;;;;;2.60;1.57;;;16.60;99.90;;;;;;6202162;23;20586;-63
2021/05/11 12:31:39;;;;;;;2.90;2.00;;;16.60;99.90;;;;;;6199226;23;20536;-63
2021/05/11 12:34:12;;;;;;;5.00;2.03;;;16.60;99.90;;;;;;6171952;23;20688;-63
2021/05/11 12:36:48;;;;;;;2.40;1.70;;;16.70;99.90;;;;;;6169008;23;20591;-63
2021/05/11 12:39:34;;;;;;;1.93;1.10;;;16.60;99.90;;;;;;6197325;23;20508;-63
2021/05/11 12:42:25;;;;;;;1.53;1.40;;;16.70;99.90;;;;;;6175001;23;20511;-65
2021/05/11 12:45:13;;;;;;;1.40;1.20;;;16.60;99.90;;;;;;6193467;22;20587;-66
2021/05/11 12:47:46;;;;;;;1.53;1.43;;;16.60;99.90;;;;;;6175178;23;20563;-67
2021/05/11 12:50:34;;;;;;;2.77;1.50;;;16.70;99.90;;;;;;6198646;22;20583;-67
2021/05/11 12:53:26;;;;;;;1.50;1.40;;;16.70;99.90;;;;;;6196452;23;20514;-67
2021/05/11 12:58:59;;;;;;;3.23;1.43;;;16.60;99.90;;;;;;6200770;23;20542;-65
2021/05/11 13:01:33;;;;;;;2.33;1.40;;;16.70;99.90;;;;;;6173135;23;20627;-66
2021/05/11 13:04:32;;;;;;;1.73;1.27;;;16.60;99.90;;;;;;6197766;23;20598;-66
2021/05/11 13:25:04;;;;;;;2.30;1.53;;;16.40;99.90;;;;;;6204241;23;20574;-69
2021/05/11 13:26:10;;;;;;;2.57;1.63;;;16.40;99.90;;;;;;6197088;23;20793;-67
2021/05/11 13:28:51;;;;;;;1.77;1.37;;;16.30;99.90;;;;;;6196559;22;20571;-68
2021/05/11 13:31:35;;;;;;;1.23;1.13;;;16.30;99.90;;;;;;6200587;22;20912;-67
2021/05/11 13:34:11;;;;;;;1.63;1.47;;;16.30;99.90;;;;;;6170240;22;20587;-67
2021/05/11 13:36:41;;;;;;;2.00;1.60;;;16.30;99.90;;;;;;6198394;22;20567;-68
2021/05/11 13:39:08;;;;;;;2.67;1.70;;;16.20;99.90;;;;;;6198601;23;20523;-68
2021/05/11 13:41:34;;;;;;;1.60;1.50;;;16.20;99.90;;;;;;6201000;23;20612;-66
2021/05/11 13:44:00;;;;;;;2.30;1.50;;;16.30;99.90;;;;;;6198081;22;20590;-69
2021/05/11 13:46:25;;;;;;;2.40;1.80;;;16.30;99.90;;;;;;6195400;22;20172;-67
2021/05/11 13:48:51;;;;;;;1.77;1.60;;;16.30;99.90;;;;;;6200850;22;20578;-68
2021/05/11 13:51:20;;;;;;;2.57;1.87;;;16.30;99.90;;;;;;6173938;23;20160;-68
2021/05/11 13:54:00;;;;;;;2.40;2.03;;;16.20;99.90;;;;;;6195429;22;20196;-69
2021/05/11 13:56:46;;;;;;;2.27;1.70;;;16.30;99.90;;;;;;6168753;23;20583;-68
2021/05/11 14:02:24;;;;;;;3.17;2.17;;;16.20;99.90;;;;;;6196732;23;20535;-69
2021/05/11 14:04:49;;;;;;;2.57;2.10;;;16.30;99.90;;;;;;6171917;23;20595;-69
2021/05/11 14:07:17;;;;;;;4.53;2.03;;;16.30;99.90;;;;;;6201004;23;20563;-66
2021/05/11 14:09:43;;;;;;;3.03;1.77;;;16.30;99.90;;;;;;6199742;23;20229;-66
2021/05/11 14:12:09;;;;;;;2.33;1.70;;;16.40;99.90;;;;;;6196812;22;20563;-68
2021/05/11 14:14:34;;;;;;;2.33;1.80;;;16.40;99.90;;;;;;6196776;22;20250;-67
2021/05/11 14:17:00;;;;;;;2.47;2.00;;;16.30;99.90;;;;;;6202550;23;20416;-68
2021/05/11 14:19:28;;;;;;;4.37;2.13;;;16.40;99.90;;;;;;6197265;22;20368;-68
2021/05/11 14:21:53;;;;;;;4.00;1.80;;;16.40;99.90;;;;;;6197308;23;20156;-68
2021/05/11 14:24:19;;;;;;;3.70;2.43;;;16.40;99.90;;;;;;6197220;23;20595;-68
2021/05/11 14:26:47;;;;;;;3.40;2.23;;;16.50;99.90;;;;;;6199648;23;20180;-67
2021/05/11 14:29:13;;;;;;;1.70;1.60;;;16.60;99.90;;;;;;6199565;22;20180;-66
2021/05/11 14:31:38;;;;;;;2.60;1.87;;;16.60;99.90;;;;;;6173063;23;20594;-65
2021/05/11 14:34:05;;;;;;;2.90;2.23;;;16.60;99.90;;;;;;6175165;23;20557;-67
2021/05/11 14:36:31;;;;;;;4.70;2.13;;;16.60;99.90;;;;;;6203729;22;20199;-66
2021/05/11 14:38:59;;;;;;;2.10;1.90;;;16.70;99.90;;;;;;6172895;23;20920;-67
2021/05/11 14:41:27;;;;;;;2.20;2.00;;;16.70;99.90;;;;;;6173294;23;20217;-68
2021/05/11 14:43:55;;;;;;;2.50;1.60;;;16.70;99.90;;;;;;6196088;22;21200;-68
2021/05/11 14:46:21;;;;;;;4.57;2.27;;;16.70;99.90;;;;;;6200362;23;20903;-68
2021/05/11 14:48:50;;;;;;;2.50;1.90;;;16.70;99.90;;;;;;6199494;23;20575;-69
2021/05/11 14:51:16;;;;;;;2.80;1.67;;;16.70;99.90;;;;;;6199613;22;20156;-68
2021/05/11 14:53:42;;;;;;;5.07;2.50;;;16.60;99.90;;;;;;6171411;23;21076;-69
2021/05/11 14:56:12;;;;;;;2.50;1.90;;;16.60;99.90;;;;;;6196319;22;20585;-68
2021/05/11 14:58:38;;;;;;;3.03;2.20;;;16.70;99.90;;;;;;6198599;22;20160;-68
2021/05/11 15:01:04;;;;;;;2.47;1.90;;;16.60;99.90;;;;;;6172794;23;20621;-68
2021/05/11 15:03:29;;;;;;;2.17;2.00;;;16.70;99.90;;;;;;6193609;23;20628;-67
2021/05/11 15:05:55;;;;;;;3.37;1.90;;;16.70;99.90;;;;;;6200238;23;20559;-69
2021/05/11 15:08:21;;;;;;;3.30;2.10;;;16.70;99.90;;;;;;6197212;22;20195;-69
2021/05/11 15:10:46;;;;;;;2.93;2.00;;;16.70;99.90;;;;;;6195787;22;20562;-70
2021/05/11 15:13:15;;;;;;;2.87;1.90;;;16.70;99.90;;;;;;6173616;23;20192;-70
2021/05/11 15:15:44;;;;;;;2.50;2.03;;;16.70;99.90;;;;;;6198920;22;20180;-70
2021/05/11 15:18:09;;;;;;;1.93;1.80;;;16.70;99.90;;;;;;6171757;22;20575;-69
2021/05/11 15:20:35;;;;;;;2.60;1.90;;;16.70;99.90;;;;;;6190225;23;20723;-68
2021/05/11 15:23:02;;;;;;;2.43;1.60;;;16.70;99.90;;;;;;6160891;23;20210;-67
2021/05/11 15:25:29;;;;;;;3.87;1.97;;;16.70;99.90;;;;;;6162209;23;20160;-68
2021/05/11 15:27:57;;;;;;;2.07;1.80;;;16.70;99.90;;;;;;6193483;23;21059;-68
2021/05/11 15:30:27;;;;;;;1.90;1.80;;;16.80;99.90;;;;;;6196146;22;20572;-67
2021/05/11 15:32:56;;;;;;;1.87;1.70;;;16.70;99.90;;;;;;6159524;23;20569;-67
2021/05/11 15:35:32;;;;;;;2.33;1.80;;;16.70;99.90;;;;;;6187778;23;20662;-65
2021/05/11 15:37:59;;;;;;;1.93;1.83;;;16.60;99.90;;;;;;6169587;23;20630;-66
2021/05/11 15:40:31;;;;;;;3.57;1.93;;;16.60;99.90;;;;;;6166215;23;20559;-67
2021/05/11 15:42:57;;;;;;;2.60;2.10;;;16.60;99.90;;;;;;6169993;23;20556;-67
2021/05/11 15:45:27;;;;;;;3.17;1.80;;;16.60;99.90;;;;;;6200879;22;20615;-69
2021/05/11 15:47:53;;;;;;;1.70;1.60;;;16.60;99.90;;;;;;6193665;23;20508;-69
2021/05/11 15:50:26;;;;;;;3.53;1.63;;;16.60;99.90;;;;;;6166408;23;20587;-68
2021/05/11 15:52:54;;;;;;;2.57;1.80;;;16.60;99.90;;;;;;6196984;23;20503;-66
2021/05/11 15:55:23;;;;;;;4.03;2.10;;;16.60;99.90;;;;;;6169199;23;20555;-68
2021/05/11 15:57:50;;;;;;;2.07;1.53;;;16.60;99.90;;;;;;6200668;23;21098;-68
2021/05/11 16:00:17;;;;;;;2.90;1.70;;;16.60;99.90;;;;;;6200974;23;20547;-69
2021/05/11 16:02:45;;;;;;;3.10;1.80;;;16.60;99.90;;;;;;6170691;23;20652;-68
2021/05/11 16:05:12;;;;;;;2.53;1.90;;;16.60;99.90;;;;;;6192676;23;20587;-68
2021/05/11 16:07:38;;;;;;;1.87;1.77;;;16.50;99.90;;;;;;6198773;23;20555;-69
2021/05/11 16:10:07;;;;;;;3.37;2.20;;;16.50;99.90;;;;;;6170845;23;20602;-68
2021/05/11 16:12:32;;;;;;;2.30;1.70;;;16.50;99.90;;;;;;6199071;23;20576;-68
2021/05/11 16:15:00;;;;;;;3.10;2.20;;;16.50;99.90;;;;;;6172910;22;20591;-68
2021/05/11 16:17:27;;;;;;;3.10;2.00;;;16.40;99.90;;;;;;6198326;23;20255;-69
2021/05/11 16:19:52;;;;;;;2.47;1.90;;;16.50;99.90;;;;;;6173913;23;20567;-68
2021/05/11 16:22:18;;;;;;;2.53;2.13;;;16.40;99.90;;;;;;6174848;23;20642;-68
2021/05/11 16:24:43;;;;;;;4.10;2.00;;;16.40;99.90;;;;;;6171709;23;20216;-68
2021/05/11 16:27:09;;;;;;;3.23;2.50;;;16.30;99.90;;;;;;6198787;23;20187;-68
2021/05/11 16:29:34;;;;;;;2.47;1.90;;;16.30;99.90;;;;;;6192772;23;20184;-69
2021/05/11 16:32:00;;;;;;;2.50;2.10;;;16.20;99.90;;;;;;6169062;23;20496;-68
2021/05/11 16:34:26;;;;;;;4.00;2.00;;;16.20;99.90;;;;;;6196372;22;20203;-68
2021/05/11 16:36:54;;;;;;;4.37;2.03;;;16.20;99.90;;;;;;6204136;22;20245;-68
2021/05/11 16:39:24;;;;;;;3.27;2.17;;;16.10;99.90;;;;;;6202859;23;20867;-67
2021/05/11 16:41:51;;;;;;;3.13;2.07;;;16.10;99.90;;;;;;6197915;22;20574;-68
2021/05/11 16:44:19;;;;;;;2.40;2.20;;;16.10;99.90;;;;;;6199000;22;20657;-68
2021/05/11 16:46:45;;;;;;;4.03;2.10;;;16.00;99.90;;;;;;6178013;23;20588;-68
2021/05/11 16:49:13;;;;;;;2.70;1.80;;;15.90;99.90;;;;;;6172820;23;21565;-68
2021/05/11 16:51:39;;;;;;;3.23;2.07;;;15.90;99.90;;;;;;6197487;22;20163;-67
2021/05/11 16:54:07;;;;;;;2.80;2.10;;;15.90;99.90;;;;;;6197114;23;20611;-67
2021/05/11 16:56:32;;;;;;;3.50;2.30;;;15.90;99.90;;;;;;6168224;23;20275;-68